Time;durP1;ratioP1;P1;durP2;ratioP2;P2;SDS_P1;SDS_P2;PMS_P1;PMS_P2;Temp;Humidity;BMP_temperature;BMP_pressure;BME280_temperature;BME280_humidity;BME280_pressure;Samples;Min_cycle;Max_cycle;Signal;HPM_P1;HPM_P2
2022/11/17 00:01:13;;;;;;;2.65;2.55;;;;;;;9.30;100.00;98596.03;5240414;28;20085;-83
2022/11/17 00:03:44;;;;;;;2.17;2.08;;;;;;;9.23;100.00;98588.38;5240899;28;20488;-84
2022/11/17 00:06:16;;;;;;;3.88;3.58;;;;;;;8.81;100.00;98554.53;5240825;28;20028;-84
2022/11/17 00:08:48;;;;;;;2.92;2.78;;;;;;;9.25;100.00;98634.63;5241749;28;20096;-85
2022/11/17 00:11:18;;;;;;;5.78;3.05;;;;;;;9.24;100.00;98633.03;5242447;28;20021;-85
2022/11/17 00:16:37;;;;;;;2.20;2.10;;;;;;;9.04;100.00;98568.84;5240888;28;20043;-84
2022/11/17 00:21:57;;;;;;;1.95;1.85;;;;;;;9.18;100.00;98575.03;5241883;28;20058;-84
2022/11/17 00:24:27;;;;;;;2.75;2.65;;;;;;;9.40;100.00;98566.19;5241222;28;20048;-83
2022/11/17 00:27:00;;;;;;;1.92;1.90;;;;;;;9.20;100.00;98562.06;5239644;28;20106;-83
2022/11/17 00:29:31;;;;;;;4.10;2.22;;;;;;;9.40;100.00;98604.69;5239476;28;20031;-82
2022/11/17 00:34:50;;;;;;;2.33;2.22;;;;;;;9.07;100.00;98535.94;5241629;28;20047;-84
2022/11/17 00:37:21;;;;;;;2.30;2.20;;;;;;;9.17;100.00;98554.56;5240579;28;20025;-87
2022/11/17 00:39:52;;;;;;;2.60;2.42;;;;;;;9.26;100.00;98576.97;5242159;28;20025;-85
2022/11/17 00:42:22;;;;;;;3.30;2.17;;;;;;;8.99;100.00;98505.16;5243838;28;20029;-86
2022/11/17 00:44:52;;;;;;;2.70;2.50;;;;;;;9.47;100.00;98585.44;5247382;28;20515;-85
2022/11/17 00:47:23;;;;;;;2.30;2.20;;;;;;;9.48;100.00;98579.72;5246884;28;20055;-86
2022/11/17 00:49:53;;;;;;;1.33;1.33;;;;;;;9.08;100.00;98494.47;5244120;28;20033;-86
2022/11/17 00:52:23;;;;;;;1.55;1.55;;;;;;;8.93;100.00;98473.28;5240495;28;20036;-88
2022/11/17 00:54:54;;;;;;;1.63;1.60;;;;;;;8.80;100.00;98448.78;5240806;28;20036;-87
2022/11/17 00:57:24;;;;;;;2.42;2.22;;;;;;;8.99;100.00;98470.16;5240306;28;20028;-86
2022/11/17 00:59:55;;;;;;;2.13;2.03;;;;;;;8.99;100.00;98485.50;5239903;28;20025;-87
2022/11/17 01:02:25;;;;;;;1.85;1.75;;;;;;;9.03;100.00;98494.56;5240083;28;20024;-87
2022/11/17 01:04:55;;;;;;;2.05;1.90;;;;;;;8.79;100.00;98463.34;5240770;28;20035;-86
2022/11/17 01:07:26;;;;;;;1.80;1.80;;;;;;;8.84;100.00;98483.97;5241106;28;20099;-87
2022/11/17 01:09:56;;;;;;;1.17;1.17;;;;;;;9.29;100.00;98562.91;5239989;28;20402;-86
2022/11/17 01:12:27;;;;;;;1.45;1.45;;;;;;;8.79;100.00;98482.16;5239924;28;20021;-90
2022/11/17 01:14:57;;;;;;;1.55;1.52;;;;;;;8.74;100.00;98468.03;5240073;28;20017;-86
2022/11/17 01:17:27;;;;;;;1.80;1.70;;;;;;;8.63;100.00;98454.00;5242231;28;20025;-86
2022/11/17 01:19:58;;;;;;;2.17;2.08;;;;;;;8.90;100.00;98531.19;5241739;28;20036;-87
2022/11/17 01:22:28;;;;;;;1.90;1.83;;;;;;;8.86;100.00;98497.91;5239945;28;20399;-86
2022/11/17 01:24:59;;;;;;;1.20;1.20;;;;;;;8.70;100.00;98467.81;5239874;28;20039;-87
2022/11/17 01:27:29;;;;;;;2.15;2.05;;;;;;;8.78;100.00;98506.69;5239784;28;20033;-86
2022/11/17 01:29:59;;;;;;;1.73;1.70;;;;;;;9.10;100.00;98538.03;5239690;28;20116;-86
2022/11/17 01:32:30;;;;;;;3.70;1.90;;;;;;;8.58;100.00;98486.41;5239834;28;20032;-89
2022/11/17 01:35:00;;;;;;;1.92;1.83;;;;;;;9.05;100.00;98538.13;5256457;22;20041;-79
2022/11/17 01:37:30;;;;;;;1.90;1.80;;;;;;;8.99;100.00;98536.66;5264180;28;20095;-79
2022/11/17 01:40:01;;;;;;;4.90;2.33;;;;;;;8.94;100.00;98534.09;5246891;28;20024;-81
2022/11/17 01:42:31;;;;;;;2.20;2.15;;;;;;;8.76;100.00;98504.31;5247758;28;20021;-80
2022/11/17 01:45:20;;;;;;;1.70;1.60;;;;;;;8.92;100.00;98525.53;5264718;28;20283;-79
2022/11/17 01:47:56;;;;;;;1.80;1.70;;;;;;;8.93;100.00;98524.41;5263938;28;20032;-80
2022/11/17 01:50:40;;;;;;;1.98;1.88;;;;;;;8.62;100.00;98454.31;5247026;28;20024;-81
2022/11/17 01:53:16;;;;;;;2.00;1.95;;;;;;;8.92;100.00;98506.69;5247464;28;20069;-81
2022/11/17 01:55:55;;;;;;;2.17;2.08;;;;;;;8.86;100.00;98502.50;5261390;28;20020;-81
2022/11/17 01:58:32;;;;;;;2.20;2.10;;;;;;;8.72;100.00;98471.00;5262188;28;20067;-81
2022/11/17 02:01:03;;;;;;;2.45;2.35;;;;;;;8.70;100.00;98472.41;5261830;28;20111;-81
2022/11/17 02:03:35;;;;;;;3.63;2.05;;;;;;;8.75;100.00;98475.00;5242963;28;20055;-81
2022/11/17 02:06:08;;;;;;;3.53;1.95;;;;;;;8.75;100.00;98466.94;5260567;28;20338;-81
2022/11/17 02:08:41;;;;;;;2.05;1.95;;;;;;;8.82;100.00;98479.97;5261384;28;20024;-81
2022/11/17 02:11:16;;;;;;;3.00;2.72;;;;;;;8.80;100.00;98464.94;5259593;28;20078;-81
2022/11/17 02:13:48;;;;;;;2.90;2.70;;;;;;;8.64;100.00;98438.66;5261334;28;20059;-81
2022/11/17 02:16:18;;;;;;;2.70;2.60;;;;;;;8.89;100.00;98467.72;5260511;28;20025;-81
2022/11/17 02:18:48;;;;;;;2.55;2.45;;;;;;;8.85;100.00;98452.47;5260797;28;20162;-80
2022/11/17 02:21:31;;;;;;;2.45;2.35;;;;;;;9.03;100.00;98470.34;5259886;28;20036;-81
2022/11/17 02:24:46;;;;;;;1.75;1.75;;;;;;;9.01;100.00;98464.47;5261135;28;20024;-81
2022/11/17 02:30:49;;;;;;;2.95;2.75;;;;;;;8.94;100.00;98461.41;5259042;28;20071;-80
2022/11/17 02:33:57;;;;;;;8.43;3.15;;;;;;;9.02;100.00;98442.63;5259845;28;20122;-80
2022/11/17 02:36:33;;;;;;;1.90;1.85;;;;;;;9.02;100.00;98452.59;5236523;28;20050;-81
2022/11/17 02:39:18;;;;;;;3.22;2.97;;;;;;;9.01;100.00;98440.25;5260684;28;20028;-80
2022/11/17 02:41:52;;;;;;;4.97;2.83;;;;;;;9.23;100.00;98451.03;5261147;28;20123;-81
2022/11/17 02:44:35;;;;;;;2.50;2.40;;;;;;;9.29;100.00;98441.72;5261014;28;20032;-80
2022/11/17 02:47:21;;;;;;;3.55;2.47;;;;;;;9.11;100.00;98397.72;5263152;28;20017;-80
2022/11/17 02:50:05;;;;;;;8.27;2.75;;;;;;;9.27;100.00;98395.44;5263207;28;20058;-80
2022/11/17 02:52:36;;;;;;;6.68;2.65;;;;;;;9.46;100.00;98412.22;5261880;28;20093;-80
2022/11/17 02:58:33;;;;;;;3.15;2.63;;;;;;;9.29;100.00;98377.09;5261888;28;20043;-80
2022/11/17 03:01:53;;;;;;;3.08;2.30;;;;;;;9.55;100.00;98387.19;5262206;28;20026;-80
2022/11/17 03:04:23;;;;;;;2.22;2.13;;;;;;;9.57;100.00;98393.06;5257829;28;20043;-80
2022/11/17 03:07:26;;;;;;;1.92;1.83;;;;;;;9.62;100.00;98390.25;5260978;28;20075;-80
2022/11/17 03:09:56;;;;;;;2.05;1.80;;;;;;;9.67;100.00;98382.03;5262418;28;20067;-80
2022/11/17 03:12:49;;;;;;;4.38;2.30;;;;;;;9.72;100.00;98384.59;5261246;28;20363;-80
2022/11/17 03:15:36;;;;;;;2.38;2.28;;;;;;;9.60;100.00;98350.16;5250154;28;20040;-80
2022/11/17 03:18:26;;;;;;;4.47;2.40;;;;;;;9.75;100.00;98374.00;5261354;28;20021;-81
2022/11/17 03:21:09;;;;;;;2.67;2.47;;;;;;;9.76;100.00;98358.63;5260187;28;20043;-80
2022/11/17 03:23:53;;;;;;;3.30;1.48;;;;;;;9.86;100.00;98368.31;5260985;28;20099;-80
2022/11/17 03:26:34;;;;;;;9.48;2.58;;;;;;;8.32;100.00;98144.63;5246066;22;20163;-92
2022/11/17 03:29:20;;;;;;;2.08;1.98;;;;;;;8.74;100.00;98209.72;5232237;28;20178;-93
2022/11/17 03:31:57;;;;;;;6.72;2.97;;;;;;;9.86;100.00;98389.88;5229568;28;20028;-91
2022/11/17 03:34:34;;;;;;;1.85;1.75;;;;;;;8.65;100.00;98168.53;5228366;28;20021;-91
2022/11/17 03:37:08;;;;;;;7.32;2.40;;;;;;;9.68;100.00;98365.56;5227621;28;20025;-91
2022/11/17 03:39:56;;;;;;;3.65;2.40;;;;;;;8.01;100.00;98090.81;5228745;28;20029;-92
2022/11/17 03:42:31;;;;;;;2.65;2.40;;;;;;;9.76;100.00;98355.94;5228962;28;20062;-91
2022/11/17 03:45:08;;;;;;;7.45;2.28;;;;;;;9.10;100.00;98223.84;5226864;28;20092;-91
2022/11/17 03:47:40;;;;;;;3.13;2.88;;;;;;;9.12;100.00;98243.16;5227464;28;20028;-91
2022/11/17 03:50:15;;;;;;;4.50;2.72;;;;;;;9.19;100.00;98255.41;5226431;28;20021;-91
2022/11/17 03:52:46;;;;;;;2.60;2.20;;;;;;;9.72;100.00;98336.88;5226460;28;20036;-91
2022/11/17 03:55:17;;;;;;;2.83;2.28;;;;;;;9.50;100.00;98306.53;5241038;28;20048;-91
2022/11/17 03:58:13;;;;;;;3.45;3.15;;;;;;;9.70;100.00;98333.72;5250472;28;20021;-92
2022/11/17 04:00:48;;;;;;;3.25;2.90;;;;;;;9.64;100.00;98328.78;5227607;28;20036;-91
2022/11/17 04:03:22;;;;;;;7.85;3.88;;;;;;;9.09;100.00;98237.59;5227208;28;20116;-92
2022/11/17 04:05:52;;;;;;;3.88;2.40;;;;;;;9.71;100.00;98329.91;5226996;28;20074;-91
2022/11/17 04:08:29;;;;;;;4.38;3.13;;;;;;;9.63;100.00;98311.00;5227210;28;20033;-92
2022/11/17 04:16:38;;;;;;;3.20;2.87;;;;;;;9.45;100.00;98335.19;5227214;28;20102;-91
2022/11/17 04:19:08;;;;;;;3.58;2.65;;;;;;;9.70;100.00;98386.81;5226984;28;20383;-91
2022/11/17 04:21:38;;;;;;;6.47;3.40;;;;;;;9.69;100.00;98377.13;5225555;28;20102;-91
2022/11/17 04:24:09;;;;;;;10.85;4.30;;;;;;;9.68;100.00;98376.34;5226674;28;20079;-91
2022/11/17 04:29:28;;;;;;;4.28;2.55;;;;;;;9.11;100.00;98287.34;5225769;28;20055;-90
2022/11/17 04:31:59;;;;;;;7.25;2.60;;;;;;;9.68;100.00;98367.47;5225333;28;20021;-90
2022/11/17 04:34:29;;;;;;;7.95;4.53;;;;;;;8.97;100.00;98266.97;5224897;28;20048;-90
2022/11/17 04:37:00;;;;;;;3.45;2.95;;;;;;;9.68;100.00;98379.03;5225271;28;20029;-90
2022/11/17 04:39:30;;;;;;;9.80;3.20;;;;;;;9.67;100.00;98382.84;5224861;28;20060;-91
2022/11/17 04:42:06;;;;;;;4.32;3.35;;;;;;;9.64;100.00;98355.72;5224962;28;20021;-92
2022/11/17 04:44:41;;;;;;;2.60;2.40;;;;;;;8.76;100.00;98231.72;5224953;28;20025;-90
2022/11/17 04:47:15;;;;;;;4.95;3.05;;;;;;;8.02;100.00;98156.88;5224838;28;20021;-91
2022/11/17 04:49:45;;;;;;;3.25;3.05;;;;;;;8.91;100.00;98281.69;5224778;28;20033;-91
2022/11/17 04:52:16;;;;;;;2.88;2.67;;;;;;;8.27;100.00;98195.81;5225853;28;20023;-90
2022/11/17 04:54:46;;;;;;;6.57;3.47;;;;;;;7.68;100.00;98071.44;5225990;28;20051;-90
2022/11/17 04:57:17;;;;;;;10.38;4.22;;;;;;;8.60;100.00;98215.19;5225363;28;20060;-91
2022/11/17 04:59:54;;;;;;;7.05;4.30;;;;;;;7.83;100.00;98115.94;5226138;28;20036;-90
2022/11/17 05:02:25;;;;;;;5.57;3.78;;;;;;;8.39;100.00;98187.19;5225389;28;20034;-90
2022/11/17 05:05:02;;;;;;;4.78;3.22;;;;;;;8.51;100.00;98245.81;5224678;28;20025;-90
2022/11/17 05:07:33;;;;;;;10.35;3.65;;;;;;;7.96;100.00;98130.44;5225164;28;20392;-90
2022/11/17 05:10:04;;;;;;;11.05;2.88;;;;;;;8.19;100.00;98187.66;5225083;28;20116;-90
2022/11/17 05:17:03;;;;;;;8.23;2.63;;;;;;;8.82;100.00;98281.63;5226457;28;20032;-91
2022/11/17 05:18:16;;;;;;;5.72;3.38;;;;;;;8.48;100.00;98233.78;5226808;28;20645;-90
2022/11/17 05:20:50;;;;;;;3.70;3.22;;;;;;;7.65;100.00;98114.22;5235453;28;20024;-90
2022/11/17 05:26:09;;;;;;;10.33;2.93;;;;;;;8.79;100.00;98309.94;5250741;28;20063;-90
2022/11/17 05:28:40;;;;;;;2.75;2.47;;;;;;;9.10;100.00;98352.25;5237747;28;20037;-90
2022/11/17 05:31:10;;;;;;;2.20;2.10;;;;;;;8.90;100.00;98326.66;5230243;28;20032;-90
2022/11/17 05:33:41;;;;;;;7.43;3.58;;;;;;;8.76;100.00;98309.75;5228625;28;20428;-90
2022/11/17 05:36:13;;;;;;;5.78;3.03;;;;;;;9.01;100.00;98343.34;5228716;28;20021;-90
2022/11/17 05:38:45;;;;;;;3.00;2.72;;;;;;;9.37;100.00;98413.25;5229631;28;20029;-91
2022/11/17 05:41:16;;;;;;;3.28;3.08;;;;;;;8.99;100.00;98353.59;5229171;28;20025;-91
2022/11/17 05:43:49;;;;;;;4.93;2.78;;;;;;;9.06;100.00;98394.34;5231326;28;20056;-92
2022/11/17 05:46:23;;;;;;;3.05;2.42;;;;;;;8.83;100.00;98353.19;5229969;28;20125;-92
2022/11/17 05:48:54;;;;;;;2.90;1.88;;;;;;;9.13;100.00;98410.88;5229180;28;20384;-91
2022/11/17 05:51:27;;;;;;;3.45;3.20;;;;;;;9.13;100.00;98422.44;5228274;28;20020;-92
2022/11/17 05:53:58;;;;;;;2.85;2.72;;;;;;;9.09;100.00;98443.00;5229585;28;20475;-91
2022/11/17 05:56:42;;;;;;;4.25;3.00;;;;;;;9.05;100.00;98455.47;5231930;28;20036;-92
2022/11/17 05:59:42;;;;;;;2.05;2.05;;;;;;;8.96;100.00;98433.06;5230050;28;20075;-88
2022/11/17 06:02:30;;;;;;;4.43;2.53;;;;;;;8.16;100.00;98322.69;5225988;28;20060;-91
2022/11/17 06:05:02;;;;;;;3.45;3.25;;;;;;;8.90;100.00;98430.81;5250053;28;20037;-90
2022/11/17 06:07:35;;;;;;;7.40;2.58;;;;;;;8.95;100.00;98457.63;5250997;28;20084;-91
2022/11/17 06:10:06;;;;;;;2.17;2.13;;;;;;;8.85;100.00;98430.94;5248313;28;20023;-93
2022/11/17 06:12:37;;;;;;;4.78;2.53;;;;;;;8.03;100.00;98327.00;5245574;28;20029;-92
2022/11/17 06:15:08;;;;;;;3.42;2.53;;;;;;;8.85;100.00;98437.13;5229661;28;20024;-91
2022/11/17 06:18:02;;;;;;;2.78;2.55;;;;;;;8.47;100.00;98409.69;5228923;28;20494;-91
2022/11/17 06:20:37;;;;;;;4.65;2.63;;;;;;;8.46;100.00;98424.25;5229337;28;20418;-91
2022/11/17 06:23:12;;;;;;;7.75;2.95;;;;;;;7.77;100.00;98291.81;5229213;28;20025;-92
2022/11/17 06:25:44;;;;;;;2.15;2.05;;;;;;;8.10;100.00;98352.34;5229861;28;20112;-92
2022/11/17 06:28:17;;;;;;;4.50;2.30;;;;;;;8.81;100.00;98479.19;5229577;28;20021;-90
2022/11/17 06:30:48;;;;;;;7.32;2.75;;;;;;;7.60;100.00;98278.16;5228532;28;20028;-91
2022/11/17 06:33:23;;;;;;;2.45;2.35;;;;;;;6.75;100.00;98140.78;5228623;28;20025;-92
2022/11/17 06:36:05;;;;;;;5.20;2.75;;;;;;;7.61;100.00;98279.75;5230529;28;20036;-92
2022/11/17 06:38:36;;;;;;;2.70;2.50;;;;;;;7.61;100.00;98285.94;5230064;28;20127;-91
2022/11/17 06:41:06;;;;;;;8.23;2.83;;;;;;;7.61;100.00;98279.75;5228543;28;20510;-90
2022/11/17 06:43:39;;;;;;;5.53;2.38;;;;;;;8.47;100.00;98447.34;5227797;28;20120;-91
2022/11/17 06:46:12;;;;;;;4.10;3.05;;;;;;;7.79;100.00;98324.53;5229978;28;20032;-90
2022/11/17 06:48:45;;;;;;;9.02;2.28;;;;;;;7.59;100.00;98304.22;5229322;28;20403;-92
2022/11/17 06:51:15;;;;;;;4.53;2.92;;;;;;;7.72;100.00;98364.44;5228871;28;20387;-91
2022/11/17 06:53:46;;;;;;;2.05;1.95;;;;;;;8.68;100.00;98491.53;5231257;28;20021;-90
2022/11/17 06:56:17;;;;;;;4.30;2.60;;;;;;;8.74;100.00;98490.34;5253743;28;20036;-90
2022/11/17 06:58:47;;;;;;;3.00;2.05;;;;;;;7.65;100.00;98372.88;5253589;28;20013;-91
2022/11/17 07:01:17;;;;;;;3.13;1.98;;;;;;;8.66;100.00;98482.97;5254628;28;20029;-93
2022/11/17 07:03:50;;;;;;;2.72;2.53;;;;;;;8.49;100.00;98473.94;5252478;28;20009;-91
2022/11/17 07:06:20;;;;;;;2.10;2.00;;;;;;;8.41;100.00;98452.03;5253563;28;20033;-89
2022/11/17 07:08:51;;;;;;;2.03;1.92;;;;;;;8.64;100.00;98485.19;5254224;28;20023;-89
2022/11/17 07:11:21;;;;;;;2.55;2.38;;;;;;;8.63;100.00;98491.69;5253609;28;20013;-90
2022/11/17 07:13:51;;;;;;;2.13;1.90;;;;;;;8.41;100.00;98460.09;5257809;22;20048;-65
2022/11/17 07:16:22;;;;;;;2.10;2.00;;;;;;;8.61;100.00;98498.44;5245958;28;20028;-65
2022/11/17 07:18:52;;;;;;;3.33;3.13;;;;;;;8.61;100.00;98490.38;5246164;28;20028;-66
2022/11/17 07:21:23;;;;;;;5.53;2.85;;;;;;;8.69;100.00;98519.25;5231333;28;20424;-66
2022/11/17 07:23:53;;;;;;;2.78;2.58;;;;;;;8.66;100.00;98509.88;5223167;28;20037;-66
2022/11/17 07:26:24;;;;;;;1.65;1.65;;;;;;;8.65;100.00;98507.53;5224897;28;20025;-66
2022/11/17 07:28:54;;;;;;;3.30;2.88;;;;;;;8.57;100.00;98492.88;5225136;28;20032;-66
2022/11/17 07:31:25;;;;;;;2.13;2.00;;;;;;;8.67;100.00;98521.44;5224843;28;20039;-66
2022/11/17 07:33:55;;;;;;;2.03;1.92;;;;;;;8.66;100.00;98515.25;5224681;28;20024;-66
2022/11/17 07:36:26;;;;;;;2.47;2.38;;;;;;;8.52;100.00;98501.03;5256668;22;20040;-84
2022/11/17 07:38:56;;;;;;;3.92;3.03;;;;;;;8.65;100.00;98529.03;5277021;28;20024;-83
2022/11/17 07:41:27;;;;;;;3.35;3.00;;;;;;;8.42;100.00;98498.53;5276004;28;20496;-84
2022/11/17 07:43:58;;;;;;;2.60;2.35;;;;;;;8.66;100.00;98536.03;5276120;28;20048;-84
2022/11/17 07:46:28;;;;;;;3.45;2.47;;;;;;;8.64;100.00;98541.69;5258823;28;20077;-84
2022/11/17 07:48:59;;;;;;;2.42;2.22;;;;;;;8.42;100.00;98512.00;5258865;28;20031;-84
2022/11/17 07:51:29;;;;;;;4.20;3.22;;;;;;;8.59;100.00;98546.38;5277129;28;20055;-84
2022/11/17 07:53:59;;;;;;;5.93;2.47;;;;;;;8.35;100.00;98517.00;5257459;28;20035;-84
2022/11/17 07:56:30;;;;;;;4.18;3.25;;;;;;;8.48;100.00;98535.00;5275728;28;20048;-84
2022/11/17 07:59:01;;;;;;;3.00;2.83;;;;;;;8.35;100.00;98527.75;5276400;28;20087;-84
2022/11/17 08:01:31;;;;;;;4.75;3.58;;;;;;;8.59;100.00;98563.31;5275776;28;20038;-84
2022/11/17 08:04:01;;;;;;;6.85;2.85;;;;;;;8.24;100.00;98516.34;5276017;28;20028;-83
2022/11/17 08:06:32;;;;;;;4.53;3.33;;;;;;;8.57;100.00;98575.47;5275539;28;20035;-83
2022/11/17 08:09:02;;;;;;;4.28;2.60;;;;;;;8.52;100.00;98567.50;5276143;28;20027;-84
2022/11/17 08:11:33;;;;;;;3.20;2.92;;;;;;;8.45;100.00;98562.50;5276474;28;20008;-82
2022/11/17 08:14:03;;;;;;;6.93;4.03;;;;;;;8.52;100.00;98575.56;5258298;28;20035;-83
2022/11/17 08:16:33;;;;;;;2.97;2.67;;;;;;;8.17;100.00;98528.56;5276572;28;20485;-83
2022/11/17 08:19:05;;;;;;;4.28;3.17;;;;;;;8.54;100.00;98587.63;5276762;28;20055;-83
2022/11/17 08:21:36;;;;;;;2.70;2.58;;;;;;;8.15;100.00;98531.56;5257670;28;20142;-83
2022/11/17 08:24:07;;;;;;;4.22;2.92;;;;;;;8.49;100.00;98585.00;5276290;28;20020;-83
2022/11/17 08:26:37;;;;;;;4.85;2.88;;;;;;;8.33;100.00;98570.28;5276369;28;20079;-85
2022/11/17 08:29:08;;;;;;;3.92;3.72;;;;;;;8.50;100.00;98596.56;5276447;28;20058;-84
2022/11/17 08:31:40;;;;;;;2.95;2.85;;;;;;;8.47;100.00;98600.66;5258682;28;20044;-83
2022/11/17 08:34:11;;;;;;;5.72;3.22;;;;;;;8.61;100.00;98608.75;5276366;28;20081;-83
2022/11/17 08:36:42;;;;;;;3.40;3.20;;;;;;;8.16;100.00;98540.41;5276583;28;20491;-84
2022/11/17 08:39:12;;;;;;;2.90;2.70;;;;;;;8.43;100.00;98587.00;5276168;28;20048;-84
2022/11/17 08:41:42;;;;;;;4.25;3.30;;;;;;;8.10;100.00;98540.50;5276461;28;20031;-83
2022/11/17 08:44:13;;;;;;;2.70;2.60;;;;;;;8.66;100.00;98622.88;5275890;28;20028;-84
2022/11/17 08:46:43;;;;;;;2.92;2.67;;;;;;;8.48;100.00;98588.81;5276925;28;20063;-83
2022/11/17 08:49:14;;;;;;;3.00;2.83;;;;;;;8.42;100.00;98595.38;5259148;28;20131;-83
2022/11/17 08:51:44;;;;;;;5.43;2.70;;;;;;;8.69;100.00;98622.28;5277140;28;20017;-83
2022/11/17 08:54:15;;;;;;;5.10;3.20;;;;;;;8.48;100.00;98598.75;5258099;28;20032;-82
2022/11/17 08:56:45;;;;;;;2.83;2.63;;;;;;;8.55;100.00;98599.19;5276253;28;20061;-83
2022/11/17 08:59:15;;;;;;;3.28;3.08;;;;;;;8.72;100.00;98635.16;5276414;28;20077;-83
2022/11/17 09:01:46;;;;;;;8.55;3.42;;;;;;;8.73;100.00;98657.47;5277017;28;20062;-83
2022/11/17 09:04:17;;;;;;;4.35;3.45;;;;;;;8.17;100.00;98550.09;5278682;28;20036;-83
2022/11/17 09:06:47;;;;;;;3.13;2.97;;;;;;;8.34;100.00;98585.31;5263006;28;20032;-83
2022/11/17 09:09:18;;;;;;;3.13;2.92;;;;;;;8.29;100.00;98577.31;5281371;28;20016;-84
2022/11/17 09:11:48;;;;;;;2.90;2.67;;;;;;;8.79;100.00;98649.03;5283135;28;20016;-83
2022/11/17 09:14:18;;;;;;;3.45;3.35;;;;;;;8.63;100.00;98622.72;5284740;28;20028;-83
2022/11/17 09:16:49;;;;;;;2.97;2.88;;;;;;;8.38;100.00;98587.09;5285477;28;20031;-84
2022/11/17 09:19:19;;;;;;;2.85;2.65;;;;;;;8.58;100.00;98596.69;5267909;28;20455;-84
2022/11/17 09:21:50;;;;;;;3.22;2.95;;;;;;;8.61;100.00;98604.16;5285121;28;20016;-84
2022/11/17 09:24:20;;;;;;;2.92;2.75;;;;;;;9.01;100.00;98660.97;5264946;28;20085;-86
2022/11/17 09:26:56;;;;;;;2.80;2.70;;;;;;;8.72;100.00;98588.59;5264559;28;20027;-85
2022/11/17 09:29:26;;;;;;;3.75;3.28;;;;;;;8.92;100.00;98615.13;5263942;28;20043;-85
2022/11/17 09:31:57;;;;;;;3.05;2.85;;;;;;;8.79;100.00;98575.56;5282330;28;20051;-86
2022/11/17 09:34:28;;;;;;;5.47;2.65;;;;;;;9.19;100.00;98632.38;5282154;28;20099;-86
2022/11/17 09:36:58;;;;;;;3.08;2.80;;;;;;;9.53;100.00;98648.06;5263512;28;20435;-85
2022/11/17 09:39:28;;;;;;;3.00;2.67;;;;;;;9.53;100.00;98645.38;5264043;28;20032;-87
2022/11/17 09:41:59;;;;;;;3.13;2.92;;;;;;;9.46;100.00;98602.69;5281116;28;20040;-85
2022/11/17 09:44:42;;;;;;;3.45;3.25;;;;;;;9.46;100.00;98602.69;5262162;28;20023;-86
2022/11/17 09:47:25;;;;;;;3.72;3.33;;;;;;;10.10;100.00;98693.13;5280499;28;20061;-86
2022/11/17 09:50:14;;;;;;;3.55;3.28;;;;;;;10.10;100.00;98697.72;5263042;28;20024;-85
2022/11/17 09:53:09;;;;;;;4.78;2.33;;;;;;;10.14;100.00;98710.28;5280541;28;20046;-84
2022/11/17 09:55:42;;;;;;;2.55;2.35;;;;;;;9.85;100.00;98664.03;5280023;28;20020;-84
2022/11/17 09:58:24;;;;;;;3.70;3.40;;;;;;;10.12;100.00;98711.69;5281377;28;20027;-85
2022/11/17 10:00:54;;;;;;;2.33;2.22;;;;;;;9.79;100.00;98667.97;5263010;28;20027;-84
2022/11/17 10:03:29;;;;;;;3.58;3.38;;;;;;;10.06;100.00;98704.81;5278841;28;20032;-85
2022/11/17 10:06:04;;;;;;;2.60;2.50;;;;;;;10.00;100.00;98697.94;5283065;28;20024;-85
2022/11/17 10:08:50;;;;;;;3.28;3.03;;;;;;;10.08;100.00;98716.91;5265404;28;20028;-85
2022/11/17 10:11:32;;;;;;;3.55;3.35;;;;;;;9.77;100.00;98684.44;5264907;28;20032;-86
2022/11/17 10:14:15;;;;;;;3.05;2.55;;;;;;;10.08;100.00;98726.91;5263542;28;20028;-86
2022/11/17 10:16:54;;;;;;;4.78;3.63;;;;;;;10.09;100.00;98729.28;5261304;28;20306;-85
2022/11/17 10:19:27;;;;;;;7.97;2.50;;;;;;;9.50;100.00;98640.59;5280745;28;20043;-86
2022/11/17 10:22:01;;;;;;;6.30;3.42;;;;;;;9.99;100.00;98728.72;5261724;28;20507;-86
2022/11/17 10:24:33;;;;;;;4.25;3.58;;;;;;;10.00;100.00;98735.69;5280364;28;20039;-86
2022/11/17 10:27:24;;;;;;;4.15;2.83;;;;;;;10.10;100.00;98744.38;5280720;28;20069;-86
2022/11/17 10:30:05;;;;;;;3.85;2.95;;;;;;;10.19;100.00;98751.72;5281180;28;20028;-85
2022/11/17 10:32:46;;;;;;;3.53;2.50;;;;;;;9.89;100.00;98681.19;5280504;28;20019;-87
2022/11/17 10:35:18;;;;;;;3.13;2.85;;;;;;;10.05;100.00;98700.53;5262113;28;20051;-87
2022/11/17 10:37:54;;;;;;;7.55;2.78;;;;;;;10.46;100.00;98755.13;5263223;28;20028;-85
2022/11/17 10:40:28;;;;;;;4.10;2.40;;;;;;;10.42;100.00;98719.06;5280759;28;20024;-85
2022/11/17 10:43:23;;;;;;;2.95;2.83;;;;;;;10.56;100.00;98732.50;5280065;28;20478;-86
2022/11/17 10:45:55;;;;;;;3.63;2.35;;;;;;;10.65;100.00;98744.19;5272155;28;20036;-86
2022/11/17 10:48:34;;;;;;;4.03;2.20;;;;;;;10.38;100.00;98707.31;5281682;28;20032;-85
2022/11/17 10:51:27;;;;;;;8.10;3.17;;;;;;;10.63;100.00;98764.47;5260766;28;20062;-86
2022/11/17 10:54:15;;;;;;;3.60;3.33;;;;;;;10.59;100.00;98747.31;5280126;28;20032;-86
2022/11/17 10:56:49;;;;;;;2.03;1.90;;;;;;;10.15;100.00;98693.00;5280374;28;20405;-86
2022/11/17 10:59:40;;;;;;;1.52;1.52;;;;;;;10.74;100.00;98761.19;5262988;28;20195;-87
2022/11/17 11:02:29;;;;;;;2.33;2.22;;;;;;;10.78;100.00;98758.69;5279516;28;20024;-88
2022/11/17 11:05:15;;;;;;;4.90;2.17;;;;;;;10.81;100.00;98764.28;5261362;28;20024;-88
2022/11/17 11:07:45;;;;;;;2.25;2.15;;;;;;;10.29;100.00;98682.19;5279926;28;20603;-87
2022/11/17 11:10:25;;;;;;;2.30;2.20;;;;;;;10.99;100.00;98772.47;5280378;28;20031;-85
2022/11/17 11:13:09;;;;;;;3.55;2.75;;;;;;;10.54;100.00;98706.94;5279455;28;20115;-86
2022/11/17 11:15:39;;;;;;;2.08;1.98;;;;;;;10.41;100.00;98703.19;5280959;28;20020;-85
2022/11/17 11:18:15;;;;;;;1.55;1.50;;;;;;;10.64;100.00;98693.19;5262578;28;20031;-86
2022/11/17 11:21:38;;;;;;;3.38;1.92;;;;;;;10.75;100.00;98737.72;5279943;28;20032;-87
2022/11/17 11:24:24;;;;;;;1.75;1.73;;;;;;;10.68;100.00;98721.16;5175487;28;20033;-86
2022/11/17 11:27:03;;;;;;;3.42;2.65;;;;;;;11.03;100.00;98778.84;5174442;28;20022;-86
2022/11/17 11:29:49;;;;;;;4.27;2.73;;;;;;;10.99;100.00;98778.66;5231897;28;20601;-86
2022/11/17 11:32:30;;;;;;;3.00;2.45;;;;;;;10.44;100.00;98705.28;5262476;28;20659;-87
2022/11/17 11:35:34;;;;;;;2.58;2.40;;;;;;;11.03;100.00;98785.03;5279475;28;20058;-85
2022/11/17 11:38:05;;;;;;;2.25;2.25;;;;;;;11.02;100.00;98788.06;5280371;28;20109;-87
2022/11/17 11:40:39;;;;;;;2.10;2.00;;;;;;;10.77;100.00;98749.78;5262018;28;20085;-87
2022/11/17 11:43:44;;;;;;;2.42;1.98;;;;;;;11.07;100.00;98787.94;5280060;28;20047;-87
2022/11/17 11:46:36;;;;;;;5.70;2.40;;;;;;;11.12;100.00;98787.81;5281023;28;20077;-87
2022/11/17 11:49:25;;;;;;;2.10;1.98;;;;;;;11.06;100.00;98791.72;5261002;28;20024;-86
2022/11/17 11:51:56;;;;;;;2.47;2.28;;;;;;;10.62;100.00;98735.91;5260910;28;20020;-85
2022/11/17 11:54:37;;;;;;;3.80;2.63;;;;;;;10.55;100.00;98747.13;5278928;28;20512;-87
2022/11/17 11:57:15;;;;;;;3.05;2.65;;;;;;;10.58;100.00;98737.59;5260846;28;20024;-85
2022/11/17 12:00:00;;;;;;;2.22;2.13;;;;;;;10.82;100.00;98776.66;5280223;28;20023;-86
2022/11/17 12:02:41;;;;;;;6.10;2.47;;;;;;;10.64;100.00;98753.38;5280496;28;20114;-87
2022/11/17 12:05:47;;;;;;;2.20;2.10;;;;;;;11.08;100.00;98797.63;5261889;28;20031;-86
2022/11/17 12:08:35;;;;;;;3.70;2.58;;;;;;;10.70;100.00;98727.03;5173568;28;20064;-86
2022/11/17 12:14:05;;;;;;;3.30;2.35;;;;;;;11.16;100.00;98822.00;5281687;28;20600;-89
2022/11/17 12:16:38;;;;;;;4.00;2.03;;;;;;;11.13;100.00;98784.00;5281357;28;20107;-87
2022/11/17 12:19:43;;;;;;;2.70;2.50;;;;;;;11.33;100.00;98815.88;5280846;28;20032;-86
2022/11/17 12:22:28;;;;;;;3.78;2.33;;;;;;;11.32;100.00;98816.97;5280512;28;20031;-86
2022/11/17 12:25:11;;;;;;;4.05;2.22;;;;;;;11.30;100.00;98821.09;5279850;28;20020;-85
2022/11/17 12:27:44;;;;;;;2.08;1.83;;;;;;;11.39;100.00;98822.75;5261457;28;20024;-86
2022/11/17 12:30:30;;;;;;;6.68;2.75;;;;;;;11.54;100.00;98818.84;5289826;28;20024;-87
2022/11/17 12:33:05;;;;;;;9.43;2.92;;;;;;;10.95;100.00;98707.50;5271547;28;20028;-86
2022/11/17 12:35:38;;;;;;;1.80;1.70;;;;;;;11.08;100.00;98728.19;5288751;28;20016;-87
2022/11/17 12:38:14;;;;;;;1.58;1.58;;;;;;;11.75;100.00;98827.19;5288799;28;20048;-86
2022/11/17 12:40:46;;;;;;;3.83;1.52;;;;;;;11.53;100.00;98776.72;5286079;28;20027;-88
2022/11/17 12:43:22;;;;;;;1.58;1.58;;;;;;;11.97;100.00;98821.72;5264195;28;20026;-88